Create Custom Reports and Graphics: Custom Report

Modesto Jr College

Current Conditions

11/29/20 7:30 AM (-08:00)
Updated Every 15 Minutes
Temp 28.0 °F   0.4
RH 94 %   1
Dew Pt 26.6 °F   0.2
Wind Spd 0.8 mph
Wind Dir W | 260 °
Wind Gust 1.5 mph   1.5
Latest Rain 0.00 In
Daily Rain 0.00 In
Daily Min Temp 26.3 °F   0.1
Daily Max Temp 33.6 °F   0.2

Last 24 Hours

Modesto Jr College

15 Minute Data | America/Los_Angeles
as of 11/29/20 7:43 AM PST
Date & Time Temp (°F) RH (%) Dew Pt (°F) Wind Spd (mph) Wind Dir (°) Wind Gust (mph) Latest Rain (In) Daily Rain (In) Daily Min Temp (°F) Daily Max Temp (°F)
11/29/20 - 0730 28.0 94 26.6 0.8 W | 260 1.5 0.00 0.00 26.3 33.6
11/29/20 - 0715 26.7 93 25.0 0.6 NW | 320 1.8 0.00 0.00 26.3 33.6
11/29/20 - 0700 27.2 94 25.8 0.7 NW | 315 2.0 0.00 0.00 26.4 33.6
11/29/20 - 0645 26.7 93 25.0 0.1 W | 261 1.1 0.00 0.00 26.4 33.6
11/29/20 - 0630 27.7 93 26.0 0.0 N | 0 0.0 0.00 0.00 27.1 33.6
11/29/20 - 0615 28.5 94 26.9 0.0 N | 0 0.0 0.00 0.00 27.3 33.6
11/29/20 - 0600 28.4 94 26.9 0.0 N | 0 0.0 0.00 0.00 27.3 33.6
11/29/20 - 0545 27.6 94 26.0 0.0 N | 0 0.0 0.00 0.00 27.3 33.6
11/29/20 - 0530 27.8 93 26.1 0.0 N | 0 0.0 0.00 0.00 27.4 33.6
11/29/20 - 0515 28.2 93 26.6 0.0 N | 0 0.0 0.00 0.00 27.4 33.6
11/29/20 - 0500 28.6 94 27.0 0.0 N | 0 0.0 0.00 0.00 27.4 33.6
11/29/20 - 0445 28.4 94 26.8 0.0 N | 0 0.0 0.00 0.00 27.4 33.6
11/29/20 - 0430 27.6 93 25.9 0.0 N | 0 0.0 0.00 0.00 27.4 33.6
11/29/20 - 0415 27.9 93 26.1 0.0 N | 0 0.0 0.00 0.00 27.5 33.6
11/29/20 - 0400 27.8 93 26.0 0.1 WNW | 297 0.9 0.00 0.00 27.5 33.6
11/29/20 - 0345 28.7 92 26.7 0.7 WSW | 258 2.4 0.00 0.00 27.7 33.6
11/29/20 - 0330 29.8 93 28.1 0.1 W | 269 1.3 0.00 0.00 29.4 33.6
11/29/20 - 0315 30.3 93 28.5 0.4 NNW | 346 1.3 0.00 0.00 29.4 33.6
11/29/20 - 0300 30.8 93 29.1 0.2 NNW | 346 1.1 0.00 0.00 29.4 33.6
11/29/20 - 0245 30.5 93 28.7 0.0 N | 0 0.0 0.00 0.00 29.4 33.6
11/29/20 - 0230 30.4 93 28.6 0.1 NNW | 346 0.7 0.00 0.00 29.4 33.6
11/29/20 - 0215 30.2 92 28.3 0.4 NNW | 346 1.3 0.00 0.00 29.4 33.6
11/29/20 - 0200 30.1 93 28.2 0.0 N | 0 0.0 0.00 0.00 29.4 33.6
11/29/20 - 0145 29.7 91 27.5 0.0 N | 0 0.0 0.00 0.00 29.4 33.6
11/29/20 - 0130 30.5 91 28.2 0.0 N | 0 0.0 0.00 0.00 29.9 33.6
11/29/20 - 0115 30.9 92 28.8 0.2 W | 264 1.3 0.00 0.00 30.2 33.6
11/29/20 - 0100 30.6 91 28.2 1.3 WSW | 257 2.0 0.00 0.00 30.2 33.6
11/29/20 - 0045 31.3 91 28.9 1.0 WSW | 246 1.8 0.00 0.00 31.0 33.6
11/29/20 - 0030 32.0 90 29.5 0.0 N | 0 0.0 0.00 0.00 31.4 33.6
11/29/20 - 0015 33.1 90 30.6 0.0 NW | 317 0.4 0.00 0.00 32.6 33.6
11/29/20 - 0000 33.8 90 31.3 0.0 N | 0 0.0 0.00 0.00 26.4 63.6
11/28/20 - 2345 34.3 91 31.9 0.0 N | 0 0.0 0.00 0.00 26.4 63.6
11/28/20 - 2330 34.1 91 31.7 0.1 NW | 317 0.7 0.00 0.00 26.4 63.6
11/28/20 - 2315 33.7 90 31.2 0.0 N | 0 0.0 0.00 0.00 26.4 63.6
11/28/20 - 2300 34.2 90 31.5 0.0 N | 0 0.0 0.00 0.00 26.4 63.6
11/28/20 - 2245 34.7 90 32.1 0.0 NW | 317 0.2 0.00 0.00 26.4 63.6
11/28/20 - 2230 34.5 90 31.8 0.0 N | 0 0.0 0.00 0.00 26.4 63.6
11/28/20 - 2215 34.2 90 31.5 0.1 NW | 317 0.9 0.00 0.00 26.4 63.6
11/28/20 - 2200 34.6 89 31.6 0.0 N | 0 0.0 0.00 0.00 26.4 63.6
11/28/20 - 2145 34.8 89 31.8 0.1 NW | 317 0.9 0.00 0.00 26.4 63.6
11/28/20 - 2130 35.0 88 31.8 0.0 N | 0 0.0 0.00 0.00 26.4 63.6
11/28/20 - 2115 35.6 88 32.2 0.0 N | 0 0.0 0.00 0.00 26.4 63.6
11/28/20 - 2100 35.9 87 32.5 0.0 NW | 317 0.4 0.00 0.00 26.4 63.6
11/28/20 - 2045 36.0 87 32.4 0.0 N | 0 0.0 0.00 0.00 26.4 63.6
11/28/20 - 2030 36.4 86 32.5 0.0 N | 0 0.0 0.00 0.00 26.4 63.6
11/28/20 - 2015 36.8 86 32.9 0.0 N | 0 0.0 0.00 0.00 26.4 63.6
11/28/20 - 2000 37.2 84 32.8 0.0 N | 0 0.0 0.00 0.00 26.4 63.6
11/28/20 - 1945 37.9 82 32.8 0.0 N | 0 0.0 0.00 0.00 26.4 63.6
11/28/20 - 1930 38.8 82 33.6 0.0 NW | 317 0.4 0.00 0.00 26.4 63.6
11/28/20 - 1915 38.5 80 32.9 0.0 N | 0 0.0 0.00 0.00 26.4 63.6
11/28/20 - 1900 39.4 78 33.2 0.0 N | 0 0.0 0.00 0.00 26.4 63.6
11/28/20 - 1845 40.2 77 33.5 0.0 N | 0 0.0 0.00 0.00 26.4 63.6
11/28/20 - 1830 41.5 73 33.4 0.0 N | 0 0.0 0.00 0.00 26.4 63.6
11/28/20 - 1815 42.9 71 34.3 0.0 NW | 317 0.7 0.00 0.00 26.4 63.6
11/28/20 - 1800 44.1 69 34.5 0.0 N | 0 0.0 0.00 0.00 26.4 63.6
11/28/20 - 1745 45.6 65 34.5 0.0 N | 0 0.0 0.00 0.00 26.4 63.6
11/28/20 - 1730 47.5 60 34.2 0.3 WSW | 245 1.3 0.00 0.00 26.4 63.6
11/28/20 - 1715 50.2 55 34.5 0.0 W | 279 0.7 0.00 0.00 26.4 63.6
11/28/20 - 1700 53.5 47 33.8 0.7 WNW | 284 2.0 0.00 0.00 26.4 63.6
11/28/20 - 1645 56.4 41 33.3 2.2 WNW | 290 3.7 0.00 0.00 26.4 63.6
11/28/20 - 1630 57.7 40 33.5 2.4 NW | 304 4.2 0.00 0.00 26.4 63.6
11/28/20 - 1615 59.0 38 33.6 3.5 WNW | 298 5.9 0.00 0.00 26.4 63.6
11/28/20 - 1600 60.2 36 33.0 4.4 WNW | 294 7.5 0.00 0.00 26.4 63.6
11/28/20 - 1545 60.6 35 32.8 5.0 WNW | 294 9.2 0.00 0.00 26.4 63.6
11/28/20 - 1530 60.9 35 32.7 4.6 NW | 304 7.5 0.00 0.00 26.4 63.6
11/28/20 - 1515 61.8 33 32.1 4.4 WNW | 291 8.8 0.00 0.00 26.4 63.6
11/28/20 - 1500 62.4 32 31.8 4.8 WNW | 284 8.6 0.00 0.00 26.4 63.6
11/28/20 - 1445 63.0 32 32.7 4.1 WNW | 285 8.3 0.00 0.00 26.4 63.6
11/28/20 - 1430 63.2 32 33.0 3.9 W | 276 6.8 0.00 0.00 26.4 63.6
11/28/20 - 1415 62.9 33 33.3 3.6 W | 280 7.5 0.00 0.00 26.4 63.6
11/28/20 - 1400 62.0 34 33.5 3.4 WNW | 299 9.4 0.00 0.00 26.4 63.4
11/28/20 - 1345 62.7 34 34.3 3.2 WNW | 289 7.2 0.00 0.00 26.4 63.4
11/28/20 - 1330 60.6 37 34.3 2.6 NW | 326 5.3 0.00 0.00 26.4 61.6
11/28/20 - 1315 60.3 39 35.0 2.8 NNW | 347 7.0 0.00 0.00 26.4 61.6
11/28/20 - 1300 60.3 38 34.6 3.6 WNW | 286 6.8 0.00 0.00 26.4 61.6
11/28/20 - 1245 59.3 40 34.7 3.3 NW | 308 7.2 0.00 0.00 26.4 59.8
11/28/20 - 1230 58.5 40 34.5 3.2 NW | 306 7.2 0.00 0.00 26.4 59.4
11/28/20 - 1215 57.8 42 34.7 3.8 NW | 310 9.9 0.00 0.00 26.4 58.5
11/28/20 - 1200 56.6 44 34.8 4.3 NW | 322 8.3 0.00 0.00 26.4 58.2
11/28/20 - 1145 57.0 45 35.9 4.3 NW | 306 7.9 0.00 0.00 26.4 58.2
11/28/20 - 1130 57.4 44 35.9 4.0 WNW | 286 7.5 0.00 0.00 26.4 58.2
11/28/20 - 1115 54.8 50 36.4 2.7 NW | 313 6.4 0.00 0.00 26.4 57.0
11/28/20 - 1100 53.3 52 36.1 3.3 NNW | 333 6.6 0.00 0.00 26.4 54.4
11/28/20 - 1045 51.8 54 35.5 4.7 NNW | 327 7.7 0.00 0.00 26.4 53.0
11/28/20 - 1030 52.1 52 35.2 3.9 WNW | 296 7.2 0.00 0.00 26.4 53.0
11/28/20 - 1015 50.9 55 35.2 3.4 WNW | 296 6.6 0.00 0.00 26.4 51.7
11/28/20 - 1000 49.6 59 35.7 3.1 WNW | 292 6.6 0.00 0.00 26.4 50.8
11/28/20 - 0945 47.8 62 35.6 3.1 WNW | 286 5.5 0.00 0.00 26.4 49.0
11/28/20 - 0930 46.0 66 35.3 3.3 W | 280 6.1 0.00 0.00 26.4 46.8
11/28/20 - 0915 43.4 73 35.5 3.3 WNW | 292 6.8 0.00 0.00 26.4 44.7
11/28/20 - 0900 40.8 80 35.0 3.8 WNW | 298 7.0 0.00 0.00 26.4 42.1
11/28/20 - 0845 38.9 86 35.2 2.5 NW | 304 5.7 0.00 0.00 26.4 39.8
11/28/20 - 0830 36.3 90 33.6 1.4 NW | 326 2.8 0.00 0.00 26.4 37.7
11/28/20 - 0815 35.0 91 32.8 0.9 NW | 320 2.8 0.00 0.00 26.4 35.5
11/28/20 - 0800 33.3 93 31.4 0.5 WSW | 244 2.2 0.00 0.00 26.4 34.6
11/28/20 - 0745 31.4 94 29.9 0.6 WSW | 242 2.0 0.00 0.00 26.4 33.4
11/28/20 - 0730 28.4 94 26.8 0.0 N | 0 0.0 0.00 0.00 26.4 33.4
Max 63.2 94 36.4 5.0 - 9.9 0.00 0.00 32.6 63.6
Avg 41.3 73 31.5 1.3 - 2.8 0.00 - - -
Min 26.7 32 25.0 0.0 - 0.0 0.00 0.00 26.3 33.4
Total - - - - - - 0.00 - - -

Last 7 Days

Modesto Jr College

Daily Data | America/Los_Angeles
as of 11/29/20 7:43 AM PST
Date Daily ETo (in)
11/28/20 0.056
11/27/20 0.060
11/26/20 0.090
11/25/20 0.077
11/24/20 0.056
11/23/20 0.066
11/22/20 0.060
Max 0.090
Min 0.056